createdAt,value
2019-04-06T15:57:59.036Z,64.90
2019-04-06T16:00:38.054Z,64.90
2019-04-06T16:03:09.474Z,64.40
2019-04-06T16:05:40.682Z,64.00
2019-04-06T16:08:26.099Z,63.60
2019-04-06T16:10:57.751Z,63.40
2019-04-06T16:13:32.206Z,62.90
2019-04-06T16:16:01.121Z,62.10
2019-04-06T16:18:29.627Z,62.00
2019-04-06T16:21:18.678Z,62.40
2019-04-06T16:24:00.976Z,62.50
2019-04-06T16:26:19.927Z,62.00
2019-04-06T16:29:05.223Z,61.70
2019-04-06T16:31:52.262Z,61.50
2019-04-06T16:34:30.051Z,62.00
2019-04-06T16:37:16.850Z,61.80
2019-04-06T16:39:47.960Z,61.60
2019-04-06T16:42:22.617Z,62.30
2019-04-06T16:45:03.202Z,62.50
2019-04-06T16:47:33.132Z,62.60
2019-04-06T16:50:02.053Z,62.10
2019-04-06T16:52:33.492Z,61.90
2019-04-06T16:55:18.981Z,61.80
2019-04-06T16:57:59.613Z,62.00
2019-04-06T17:00:35.412Z,62.00
2019-04-06T17:03:07.204Z,62.40
2019-04-06T17:05:52.400Z,62.40
2019-04-06T17:08:27.074Z,61.80
2019-04-06T17:10:55.452Z,61.50
2019-04-06T17:13:29.749Z,61.70
2019-04-06T17:16:15.644Z,61.70
2019-04-06T17:18:53.242Z,61.90
2019-04-06T17:21:27.642Z,62.20
2019-04-06T17:24:06.096Z,62.70
2019-04-06T17:30:28.910Z,63.20
2019-04-06T17:33:10.850Z,63.40
2019-04-06T17:35:46.899Z,63.50
2019-04-06T17:38:18.226Z,63.80
2019-04-06T17:40:52.508Z,64.00
2019-04-06T17:43:30.162Z,63.50
2019-04-06T17:46:01.501Z,63.20
2019-04-06T17:48:38.770Z,64.20
2019-04-06T17:51:16.583Z,63.00
2019-04-06T17:54:02.963Z,62.70
2019-04-06T17:56:37.635Z,62.80
2019-04-06T17:59:06.405Z,62.90
2019-04-06T18:01:53.016Z,63.10
2019-04-06T18:04:27.611Z,63.20
2019-04-06T18:07:12.421Z,63.20
2019-04-06T18:09:51.846Z,63.20
2019-04-06T18:12:20.342Z,63.30
2019-04-06T18:14:51.341Z,63.20
2019-04-06T18:17:20.087Z,64.30
2019-04-06T18:19:46.530Z,63.50
2019-04-06T18:22:13.457Z,63.70
2019-04-06T18:24:41.071Z,63.40
2019-04-06T18:27:07.520Z,63.40
2019-04-06T18:29:34.630Z,63.20
2019-04-06T18:32:09.363Z,63.40
2019-04-06T18:34:35.866Z,63.80
2019-04-06T18:37:13.414Z,64.30
2019-04-06T18:39:40.319Z,64.50
2019-04-06T18:42:06.790Z,64.50
2019-04-06T18:44:35.315Z,65.50
2019-04-06T18:47:02.015Z,64.80
2019-04-06T18:49:30.339Z,64.90
2019-04-06T18:51:57.309Z,65.00
2019-04-06T18:54:24.705Z,65.40
2019-04-06T18:56:51.289Z,66.10
2019-04-06T18:59:17.817Z,66.30
2019-04-06T19:01:44.896Z,66.80
2019-04-06T19:04:13.173Z,67.10
2019-04-06T19:06:41.192Z,67.60
2019-04-06T19:09:19.393Z,67.60
2019-04-06T19:11:36.272Z,67.80
2019-04-06T19:14:03.096Z,67.90
2019-04-06T19:16:29.795Z,68.10
2019-04-06T19:18:56.859Z,68.30
2019-04-06T19:21:23.409Z,68.70
2019-04-06T19:23:52.791Z,68.90
2019-04-06T19:26:19.447Z,69.40
2019-04-06T19:28:47.983Z,69.60
2019-04-06T19:31:15.037Z,70.00
2019-04-06T19:33:41.846Z,70.20
2019-04-06T19:36:08.711Z,70.60
2019-04-06T19:38:35.208Z,70.60
2019-04-06T19:41:01.990Z,71.20
2019-04-06T19:43:28.617Z,71.40
2019-04-06T19:45:55.086Z,71.50
2019-04-06T19:48:21.464Z,71.80
2019-04-06T19:50:49.262Z,71.80
2019-04-06T19:53:15.699Z,72.00
2019-04-06T19:55:42.127Z,72.30
2019-04-06T19:58:08.616Z,72.20
2019-04-06T20:00:35.047Z,72.50
2019-04-06T20:03:03.220Z,72.60
2019-04-06T20:05:29.725Z,72.80
2019-04-06T20:07:56.175Z,73.00
2019-04-06T20:10:23.075Z,73.60
2019-04-06T20:12:49.594Z,73.90
2019-04-06T20:15:16.847Z,74.20
2019-04-06T20:17:43.270Z,74.20
2019-04-06T20:20:09.830Z,74.40
2019-04-06T20:22:36.515Z,74.70
2019-04-06T20:25:05.717Z,74.70
2019-04-06T20:27:34.280Z,74.80
2019-04-06T20:30:01.071Z,74.80
2019-04-06T20:32:27.938Z,74.90
2019-04-06T20:34:54.930Z,75.10
2019-04-06T20:37:21.620Z,75.20
2019-04-06T20:39:48.443Z,75.40
2019-04-06T20:42:16.576Z,75.70
2019-04-06T20:44:43.612Z,75.50
2019-04-06T20:47:11.485Z,75.80
2019-04-06T20:49:40.147Z,75.90
2019-04-06T20:52:07.473Z,76.80
2019-04-06T20:54:35.584Z,76.10
2019-04-06T20:57:02.040Z,76.20
2019-04-06T20:59:28.784Z,76.00
2019-04-06T21:01:55.228Z,75.90
2019-04-06T21:04:21.799Z,76.00
2019-04-06T21:06:48.265Z,76.20
2019-04-06T21:09:15.121Z,76.10
2019-04-06T21:11:42.490Z,76.30
2019-04-06T21:14:09.012Z,76.30
2019-04-06T21:16:35.493Z,76.40
2019-04-06T21:19:02.508Z,76.50
2019-04-06T21:21:29.175Z,76.80
2019-04-06T21:23:56.040Z,76.70
2019-04-06T21:26:22.597Z,76.40
2019-04-06T21:28:48.983Z,76.90
2019-04-06T21:31:15.519Z,77.20
2019-04-06T21:33:45.632Z,77.20
2019-04-06T21:36:11.976Z,77.30
2019-04-06T21:38:38.897Z,77.40
2019-04-06T21:41:05.603Z,77.60
2019-04-06T21:43:32.747Z,78.40
2019-04-06T21:45:59.273Z,78.70
2019-04-06T21:48:25.842Z,78.50
2019-04-06T21:50:52.300Z,78.60
2019-04-06T21:53:20.345Z,78.70
2019-04-06T21:55:47.170Z,79.60
2019-04-06T21:58:14.161Z,78.50
2019-04-06T22:00:52.416Z,79.00
2019-04-06T22:03:19.110Z,79.30
2019-04-06T22:05:45.652Z,79.30
2019-04-06T22:08:13.072Z,79.10
2019-04-06T22:10:39.546Z,79.00
2019-04-06T22:13:07.244Z,79.40
2019-04-06T22:15:34.885Z,79.70
2019-04-06T22:18:01.418Z,79.30
2019-04-06T22:20:28.156Z,79.30
2019-04-06T22:22:54.571Z,79.40
2019-04-06T22:25:21.044Z,79.70
2019-04-06T22:27:47.641Z,79.50
2019-04-06T22:30:14.132Z,80.00
2019-04-06T22:32:40.641Z,79.80
2019-04-06T22:35:07.360Z,79.80
2019-04-06T22:37:35.798Z,80.00
2019-04-06T22:40:03.844Z,80.40
2019-04-06T22:42:31.937Z,80.80
2019-04-06T22:44:58.986Z,80.20
2019-04-06T22:47:25.605Z,80.30
2019-04-06T22:49:51.977Z,80.50
2019-04-06T22:52:18.470Z,80.60
2019-04-06T22:54:45.810Z,80.50
2019-04-06T22:57:12.187Z,80.30
2019-04-06T22:59:39.245Z,80.30
2019-04-06T23:02:07.669Z,80.10
2019-04-06T23:04:46.638Z,80.00
2019-04-06T23:07:06.450Z,80.10
2019-04-06T23:09:32.763Z,79.90
2019-04-06T23:11:59.500Z,80.20
2019-04-06T23:14:26.206Z,80.30
2019-04-06T23:16:52.921Z,80.10
2019-04-06T23:19:19.308Z,80.00
2019-04-06T23:21:46.743Z,79.80
2019-04-06T23:24:13.587Z,79.90
2019-04-06T23:26:40.168Z,80.20
2019-04-06T23:29:06.566Z,80.70
2019-04-06T23:31:33.463Z,80.70
2019-04-06T23:34:00.082Z,80.70
2019-04-06T23:36:26.997Z,80.90
2019-04-06T23:38:53.523Z,81.30
2019-04-06T23:41:20.413Z,81.30
2019-04-06T23:43:48.496Z,81.20
2019-04-06T23:46:14.802Z,81.00
2019-04-06T23:48:42.891Z,81.30
2019-04-06T23:51:10.695Z,81.50
2019-04-06T23:53:37.345Z,81.40
2019-04-06T23:56:04.395Z,81.60
2019-04-06T23:58:31.405Z,81.70
